Time;durP1;ratioP1;P1;durP2;ratioP2;P2;SDS_P1;SDS_P2;PMS_P1;PMS_P2;Temp;Humidity;BMP_temperature;BMP_pressure;BME280_temperature;BME280_humidity;BME280_pressure;Samples;Min_cycle;Max_cycle;Signal;HPM_P1;HPM_P2
2020/12/12 00:01:50;;;;;;;130.55;59.53;;;;;;;-0.06;77.88;98969.38;2201194;79;28736;-63
2020/12/12 00:04:52;;;;;;;119.05;60.35;;;;;;;-0.02;78.00;98966.61;2226820;79;32537;-61
2020/12/12 00:07:55;;;;;;;131.18;62.20;;;;;;;0.01;78.00;98964.33;2231690;79;33137;-62
2020/12/12 00:10:59;;;;;;;119.90;56.30;;;;;;;0.03;78.04;98971.73;2230789;79;28860;-62
2020/12/12 00:14:02;;;;;;;125.70;61.75;;;;;;;0.09;78.20;98975.97;2192879;81;27691;-62
2020/12/12 00:20:30;;;;;;;121.87;60.67;;;;;;;0.25;78.33;98971.14;2243088;79;37381;-68
2020/12/12 00:27:13;;;;;;;127.17;58.47;;;;;;;0.39;78.24;98976.86;2286413;77;27762;-63
2020/12/12 00:30:21;;;;;;;118.02;58.40;;;;;;;0.36;78.20;98983.53;2224283;78;27273;-64
2020/12/12 00:36:57;;;;;;;121.47;65.90;;;;;;;0.49;78.36;98983.19;2265581;77;32110;-62
2020/12/12 00:40:00;;;;;;;131.07;63.28;;;;;;;0.57;78.41;98987.33;2259486;78;27563;-62
2020/12/12 00:43:03;;;;;;;125.67;58.10;;;;;;;0.60;78.33;98986.36;2259180;78;29272;-61
2020/12/12 00:46:05;;;;;;;131.00;61.42;;;;;;;0.56;78.32;98980.77;2219591;80;31318;-65
2020/12/12 00:49:08;;;;;;;132.25;62.10;;;;;;;0.58;78.33;98986.86;2249333;78;33099;-66
2020/12/12 00:52:11;;;;;;;134.85;62.73;;;;;;;0.64;78.40;98984.05;2240778;78;28569;-68
2020/12/12 00:55:14;;;;;;;142.20;63.63;;;;;;;0.67;78.36;98985.25;2246523;78;27909;-63
2020/12/12 00:58:16;;;;;;;144.30;67.27;;;;;;;0.68;78.42;98992.24;2259709;78;28843;-62
2020/12/12 01:01:19;;;;;;;137.40;64.42;;;;;;;0.67;78.35;98989.67;2259505;78;31139;-67
2020/12/12 01:04:21;;;;;;;137.68;64.55;;;;;;;0.68;78.45;98989.61;2242995;78;33115;-67
2020/12/12 01:07:23;;;;;;;149.90;69.42;;;;;;;0.65;78.53;98992.36;2226215;78;29055;-69
2020/12/12 01:10:26;;;;;;;147.93;67.00;;;;;;;0.63;78.48;98991.98;2259736;78;27693;-63
2020/12/12 01:13:29;;;;;;;149.15;65.95;;;;;;;0.64;78.58;98984.05;2222293;78;28832;-62
2020/12/12 01:16:32;;;;;;;121.85;52.93;;;;;;;0.60;78.59;98984.57;2219497;80;32074;-67
2020/12/12 01:19:34;;;;;;;145.20;65.83;;;;;;;0.62;78.95;98986.30;2219456;80;33974;-70
2020/12/12 01:22:36;;;;;;;133.07;64.60;;;;;;;0.62;78.63;98986.30;2219485;80;28851;-62
2020/12/12 01:25:39;;;;;;;142.57;63.83;;;;;;;0.69;78.86;98986.53;2252533;78;27695;-62
2020/12/12 01:28:42;;;;;;;136.92;64.50;;;;;;;0.72;78.78;98975.91;2259623;78;28815;-61
2020/12/12 01:31:49;;;;;;;149.57;65.12;;;;;;;0.77;78.82;98984.52;2259466;78;31692;-61
2020/12/12 01:34:52;;;;;;;154.20;66.72;;;;;;;0.79;78.78;98983.16;2252122;78;33623;-61
2020/12/12 01:37:54;;;;;;;160.57;65.00;;;;;;;0.81;78.87;98982.66;2249230;79;29802;-70
2020/12/12 01:40:57;;;;;;;154.00;65.50;;;;;;;0.78;78.84;98977.02;2249416;79;27662;-65
2020/12/12 01:43:59;;;;;;;134.50;62.90;;;;;;;0.78;78.87;98979.65;2245237;79;28941;-62
2020/12/12 01:47:02;;;;;;;140.57;61.13;;;;;;;0.77;78.84;98980.55;2217905;79;31148;-68
2020/12/12 01:50:06;;;;;;;143.78;61.30;;;;;;;0.75;78.91;98970.52;2230173;79;33958;-68
2020/12/12 01:53:09;;;;;;;129.20;53.58;;;;;;;0.75;78.93;98971.83;2224753;79;28917;-68
2020/12/12 01:56:12;;;;;;;126.35;56.60;;;;;;;0.75;78.97;98974.03;2195674;79;27705;-70
2020/12/12 01:59:14;;;;;;;135.20;59.45;;;;;;;0.74;78.99;98968.34;2214605;79;28822;-70
2020/12/12 02:02:19;;;;;;;141.22;66.82;;;;;;;0.74;79.09;98967.03;2235163;79;30391;-69
2020/12/12 02:05:40;;;;;;;152.97;67.62;;;;;;;0.74;79.04;98970.13;2237247;79;33197;-68
2020/12/12 02:08:45;;;;;;;145.43;63.45;;;;;;;0.78;79.15;98969.58;2227390;79;28104;-62
2020/12/12 02:11:47;;;;;;;127.60;57.83;;;;;;;0.83;79.18;98975.58;2221408;79;28138;-62
2020/12/12 02:14:49;;;;;;;120.47;55.20;;;;;;;0.82;79.05;98975.17;2227715;79;28997;-69
2020/12/12 02:17:52;;;;;;;143.37;59.88;;;;;;;0.85;79.10;98979.00;2230423;78;32104;-70
2020/12/12 02:21:00;;;;;;;121.33;52.80;;;;;;;0.85;79.10;98968.45;2212023;78;33123;-71
2020/12/12 02:24:02;;;;;;;134.03;62.45;;;;;;;0.84;79.12;98968.92;2228245;79;28910;-70
2020/12/12 02:27:06;;;;;;;121.55;54.33;;;;;;;0.82;79.07;98969.89;2231663;79;27590;-63
2020/12/12 02:30:09;;;;;;;126.78;58.42;;;;;;;0.84;79.18;98971.56;2234159;78;28820;-69
2020/12/12 02:33:13;;;;;;;132.52;57.05;;;;;;;0.90;79.15;98971.82;2222371;78;31138;-62
2020/12/12 02:36:15;;;;;;;128.15;56.60;;;;;;;0.90;79.15;98963.47;2224714;78;33110;-67
2020/12/12 02:39:18;;;;;;;127.87;55.23;;;;;;;0.88;79.11;98963.97;2230058;78;28859;-66
2020/12/12 02:42:20;;;;;;;112.22;48.65;;;;;;;0.91;79.16;98956.41;2227838;78;27907;-70
2020/12/12 02:45:22;;;;;;;134.90;58.23;;;;;;;0.91;79.21;98959.05;2254931;78;28770;-70
2020/12/12 02:48:25;;;;;;;144.70;59.03;;;;;;;0.91;79.16;98958.57;2243546;78;31594;-63
2020/12/12 02:51:27;;;;;;;134.15;57.20;;;;;;;0.95;79.27;98951.89;2230017;78;33554;-65
2020/12/12 02:54:29;;;;;;;131.93;57.67;;;;;;;0.99;79.27;98940.34;2247525;78;29342;-67
2020/12/12 02:57:33;;;;;;;144.62;62.15;;;;;;;0.99;79.19;98942.54;2186063;80;27658;-66
2020/12/12 03:00:36;;;;;;;131.60;58.20;;;;;;;0.96;79.01;98938.67;2175264;81;28806;-68
2020/12/12 03:03:38;;;;;;;129.87;55.00;;;;;;;0.98;79.08;98949.16;2191782;80;31114;-66
2020/12/12 03:06:44;;;;;;;128.68;57.05;;;;;;;0.98;79.04;98950.05;2189278;80;33374;-62
2020/12/12 03:09:45;;;;;;;127.92;56.15;;;;;;;1.00;79.05;98949.98;2199035;80;30154;-61
2020/12/12 03:12:47;;;;;;;139.50;56.70;;;;;;;1.01;79.08;98951.70;2213760;80;27652;-62
2020/12/12 03:15:49;;;;;;;125.67;54.95;;;;;;;0.99;79.03;98945.61;2184695;80;30174;-70
2020/12/12 03:18:51;;;;;;;124.55;52.08;;;;;;;1.00;79.10;98952.14;2175707;81;31133;-66
2020/12/12 03:21:53;;;;;;;121.65;51.70;;;;;;;0.99;79.02;98950.89;2175824;81;32788;-63
2020/12/12 03:24:55;;;;;;;117.67;49.50;;;;;;;0.96;79.00;98950.98;2176093;80;29318;-70
2020/12/12 03:27:57;;;;;;;122.40;52.17;;;;;;;0.95;79.02;98942.66;2175717;81;27675;-69
2020/12/12 03:31:00;;;;;;;128.70;53.38;;;;;;;0.90;79.02;98935.78;2174961;81;28834;-61
2020/12/12 03:34:02;;;;;;;110.17;49.38;;;;;;;0.88;79.04;98938.05;2182194;80;31203;-68
2020/12/12 03:37:06;;;;;;;118.65;48.70;;;;;;;0.88;79.00;98936.28;2184490;80;33827;-67
2020/12/12 03:40:08;;;;;;;125.47;53.05;;;;;;;0.83;79.18;98937.35;2235585;79;28241;-71
2020/12/12 03:43:10;;;;;;;122.45;53.65;;;;;;;0.80;79.14;98933.02;2189038;80;27710;-69
2020/12/12 03:46:12;;;;;;;117.22;47.05;;;;;;;0.78;79.19;98943.22;2214203;79;28874;-63
2020/12/12 03:49:14;;;;;;;108.78;49.42;;;;;;;0.72;79.22;98942.95;2208471;80;32540;-71
2020/12/12 03:52:18;;;;;;;114.65;49.83;;;;;;;0.72;79.35;98944.28;2208832;80;33224;-64
2020/12/12 03:55:20;;;;;;;118.90;52.30;;;;;;;0.71;79.35;98942.55;2209256;79;28834;-72
2020/12/12 03:58:23;;;;;;;117.70;51.48;;;;;;;0.69;79.36;98947.00;2218749;79;27683;-62
2020/12/12 04:01:25;;;;;;;115.97;52.23;;;;;;;0.68;79.31;98943.95;2249340;78;28811;-66
2020/12/12 04:04:28;;;;;;;114.42;50.05;;;;;;;0.72;79.49;98939.00;2236641;78;31216;-69
2020/12/12 04:07:30;;;;;;;111.35;49.10;;;;;;;0.75;79.39;98944.16;2213480;79;33354;-70
2020/12/12 04:10:32;;;;;;;111.40;49.45;;;;;;;0.81;79.45;98951.03;2211001;79;28868;-62
2020/12/12 04:13:35;;;;;;;122.78;48.75;;;;;;;0.85;79.47;98938.14;2220661;79;27737;-69
2020/12/12 04:16:37;;;;;;;130.22;49.60;;;;;;;0.88;79.38;98941.56;2248303;78;28827;-71
2020/12/12 04:19:39;;;;;;;110.28;47.80;;;;;;;0.89;79.32;98947.68;2245084;79;32507;-71
2020/12/12 04:22:41;;;;;;;113.45;51.10;;;;;;;0.86;79.21;98942.50;2203537;80;33174;-64
2020/12/12 04:25:43;;;;;;;107.43;47.10;;;;;;;0.86;79.22;98949.97;2248238;79;29304;-69
2020/12/12 04:28:45;;;;;;;115.00;49.58;;;;;;;0.84;79.23;98946.52;2237857;78;28147;-69
2020/12/12 04:31:47;;;;;;;107.32;44.55;;;;;;;0.85;79.32;98952.20;2197648;79;28828;-63
2020/12/12 04:34:49;;;;;;;106.12;47.20;;;;;;;0.83;79.16;98943.94;2194567;80;31670;-68
2020/12/12 04:37:52;;;;;;;99.37;42.60;;;;;;;0.78;79.20;98942.74;2194105;80;34047;-68
2020/12/12 04:40:54;;;;;;;104.97;46.68;;;;;;;0.75;79.24;98946.79;2243749;78;29356;-66
2020/12/12 04:43:57;;;;;;;121.85;48.55;;;;;;;0.70;79.25;98946.94;2248147;78;27747;-71
2020/12/12 04:47:00;;;;;;;79.50;35.10;;;;;;;0.71;79.42;98953.94;2248069;79;28972;-70
2020/12/12 04:50:03;;;;;;;115.95;46.18;;;;;;;0.71;79.52;98943.86;2232787;79;31317;-69
2020/12/12 04:53:17;;;;;;;107.15;43.70;;;;;;;0.70;79.49;98946.09;2218417;79;32939;-70
2020/12/12 04:56:25;;;;;;;111.22;45.28;;;;;;;0.69;79.49;98945.69;2228268;79;28852;-63
2020/12/12 04:59:31;;;;;;;105.35;42.70;;;;;;;0.67;79.57;98943.08;2247125;79;27898;-63
2020/12/12 05:02:33;;;;;;;105.58;45.28;;;;;;;0.67;79.53;98940.44;2248062;79;30168;-70
2020/12/12 05:05:35;;;;;;;95.70;42.78;;;;;;;0.66;79.53;98944.02;2214690;79;31250;-69
2020/12/12 05:08:38;;;;;;;96.40;42.08;;;;;;;0.65;79.51;98954.15;2247504;78;33760;-63
2020/12/12 05:11:44;;;;;;;101.97;43.98;;;;;;;0.62;79.45;98960.83;2248251;79;29049;-62
2020/12/12 05:14:50;;;;;;;90.67;38.55;;;;;;;0.63;79.58;98948.50;2248436;79;27668;-61
2020/12/12 05:17:53;;;;;;;94.45;44.03;;;;;;;0.64;79.49;98954.17;2248437;79;29342;-63
2020/12/12 05:20:55;;;;;;;115.50;42.58;;;;;;;0.59;79.44;98955.17;2184463;80;31166;-61
2020/12/12 05:24:00;;;;;;;102.62;41.10;;;;;;;0.59;79.45;98953.01;2223708;79;33186;-62
2020/12/12 05:27:03;;;;;;;94.55;40.60;;;;;;;0.59;79.54;98963.08;2247955;79;37312;-62
2020/12/12 05:30:06;;;;;;;99.60;40.83;;;;;;;0.57;79.52;98961.41;2247644;78;28127;-64
2020/12/12 05:33:13;;;;;;;92.85;36.20;;;;;;;0.55;79.54;98963.23;2248241;79;29686;-61
2020/12/12 05:36:15;;;;;;;78.17;34.40;;;;;;;0.50;79.52;98955.47;2233540;79;31096;-61
2020/12/12 05:39:18;;;;;;;94.72;41.13;;;;;;;0.44;79.51;98963.11;2213099;79;33537;-62
2020/12/12 05:42:21;;;;;;;70.22;32.63;;;;;;;0.44;79.64;98960.47;2208912;80;30400;-62
2020/12/12 05:45:23;;;;;;;80.32;35.50;;;;;;;0.45;79.58;98957.37;2208880;80;27716;-62
2020/12/12 05:48:26;;;;;;;83.30;37.15;;;;;;;0.44;79.57;98963.55;2208887;79;28791;-62
2020/12/12 05:51:29;;;;;;;84.70;35.33;;;;;;;0.43;79.65;98964.02;2219377;78;31571;-62
2020/12/12 05:54:32;;;;;;;92.33;37.05;;;;;;;0.41;79.65;98957.08;2208633;80;33177;-61
2020/12/12 05:57:37;;;;;;;91.90;40.55;;;;;;;0.40;79.69;98960.15;2175950;80;29540;-61
2020/12/12 06:00:42;;;;;;;101.53;44.18;;;;;;;0.47;79.81;98963.45;2200703;78;27767;-62
2020/12/12 06:03:56;;;;;;;101.18;39.45;;;;;;;0.47;79.69;98961.30;2220844;79;28805;-62
2020/12/12 06:07:11;;;;;;;102.37;42.40;;;;;;;0.48;79.69;98967.82;2248443;78;27708;-63
2020/12/12 06:10:14;;;;;;;100.47;42.08;;;;;;;0.43;79.71;98962.70;2202651;79;27616;-63
2020/12/12 06:13:18;;;;;;;107.07;44.50;;;;;;;0.36;79.54;98960.30;2188859;81;30254;-60
2020/12/12 06:16:22;;;;;;;104.00;40.92;;;;;;;0.34;79.85;98957.69;2188880;81;31614;-61
2020/12/12 06:19:27;;;;;;;116.62;41.50;;;;;;;0.37;79.81;98962.87;2168417;79;34049;-60
2020/12/12 06:22:31;;;;;;;60.60;27.60;;;;;;;0.41;79.84;98968.93;2228760;79;28528;-62
2020/12/12 06:25:33;;;;;;;104.12;44.25;;;;;;;0.40;79.78;98971.16;2228508;79;28268;-61
2020/12/12 06:28:44;;;;;;;110.95;44.67;;;;;;;0.42;79.83;98973.27;2227876;79;28619;-60
2020/12/12 06:31:47;;;;;;;107.25;45.83;;;;;;;0.45;79.81;98971.86;2225640;79;31146;-61
2020/12/12 06:34:51;;;;;;;95.40;39.53;;;;;;;0.42;79.77;98970.63;2179592;80;32280;-60
2020/12/12 06:37:54;;;;;;;84.90;29.60;;;;;;;0.45;79.84;98980.64;2179873;81;30274;-61
2020/12/12 06:40:58;;;;;;;101.47;43.87;;;;;;;0.44;79.74;98971.02;2206568;80;28201;-62
2020/12/12 06:44:02;;;;;;;79.97;37.38;;;;;;;0.48;79.77;98976.20;2218082;80;29829;-60
2020/12/12 06:47:07;;;;;;;86.05;40.78;;;;;;;0.49;79.65;98971.34;2217682;80;32137;-60
2020/12/12 06:50:15;;;;;;;94.55;41.08;;;;;;;0.48;79.64;98975.73;2200591;80;34002;-60
2020/12/12 06:53:24;;;;;;;99.72;42.73;;;;;;;0.47;79.69;98974.47;2179377;81;28868;-61
2020/12/12 06:56:31;;;;;;;112.32;42.67;;;;;;;0.48;79.73;98984.10;2179295;80;27748;-62
2020/12/12 06:59:35;;;;;;;89.80;39.30;;;;;;;0.50;79.86;98992.36;2213838;80;28864;-62
2020/12/12 07:03:01;;;;;;;115.08;46.85;;;;;;;0.53;79.76;98992.27;2213639;80;31198;-61
2020/12/12 07:06:06;;;;;;;101.07;46.27;;;;;;;0.53;79.77;98994.91;2145421;83;33098;-61
2020/12/12 07:09:09;;;;;;;99.70;42.78;;;;;;;0.55;79.73;98986.94;2181980;80;29276;-61
2020/12/12 07:12:31;;;;;;;127.02;49.73;;;;;;;0.53;79.65;98989.64;2181438;81;27718;-61
2020/12/12 07:15:36;;;;;;;98.33;43.38;;;;;;;0.54;79.69;98989.17;2239292;79;29679;-61
2020/12/12 07:18:39;;;;;;;103.83;42.13;;;;;;;0.53;79.63;98997.55;2238981;79;32206;-61
2020/12/12 07:21:41;;;;;;;147.00;56.90;;;;;;;0.57;79.70;98993.03;2198979;79;33116;-60
2020/12/12 07:24:44;;;;;;;132.60;51.95;;;;;;;0.60;79.68;98994.27;2199413;80;28855;-60
2020/12/12 07:27:46;;;;;;;97.60;45.08;;;;;;;0.65;79.76;98993.69;2209686;78;27700;-58
2020/12/12 07:30:48;;;;;;;118.57;49.88;;;;;;;0.70;79.73;98995.70;2279536;78;28833;-60
2020/12/12 07:33:53;;;;;;;118.17;50.25;;;;;;;0.70;79.57;98988.27;2279708;78;31146;-60
2020/12/12 07:37:04;;;;;;;121.90;52.10;;;;;;;0.71;79.53;98995.27;2279365;78;34464;-61
2020/12/12 07:40:08;;;;;;;98.12;44.73;;;;;;;0.74;79.61;99001.30;2242790;78;29843;-61
2020/12/12 07:43:11;;;;;;;102.47;45.78;;;;;;;0.77;79.36;99008.70;2239181;79;27615;-61
2020/12/12 07:46:14;;;;;;;106.50;46.37;;;;;;;0.73;79.42;99009.27;2238707;79;29760;-61
2020/12/12 07:49:17;;;;;;;109.85;47.83;;;;;;;0.71;79.30;99005.34;2263435;78;31134;-61
2020/12/12 07:52:20;;;;;;;137.52;66.17;;;;;;;0.70;79.24;99006.72;2279418;78;33100;-65
2020/12/12 07:55:25;;;;;;;123.45;55.78;;;;;;;0.71;79.38;99007.97;2279806;78;28954;-62
2020/12/12 07:58:30;;;;;;;88.60;41.65;;;;;;;0.78;79.41;99010.44;2264536;78;27721;-63
2020/12/12 08:01:33;;;;;;;110.28;48.15;;;;;;;0.81;79.31;99010.34;2274319;78;28632;-62
2020/12/12 08:04:37;;;;;;;96.42;45.55;;;;;;;0.78;79.18;99008.64;2215082;79;32184;-61
2020/12/12 08:07:39;;;;;;;96.15;44.85;;;;;;;0.79;79.21;99008.20;2203632;78;33986;-61
2020/12/12 08:10:42;;;;;;;148.05;59.65;;;;;;;0.81;79.20;99017.78;2279532;78;28848;-60
2020/12/12 08:13:46;;;;;;;102.02;46.13;;;;;;;0.83;79.23;99019.92;2276093;78;27666;-60
2020/12/12 08:16:54;;;;;;;91.22;44.10;;;;;;;0.88;79.14;99011.87;2268540;78;28126;-61
2020/12/12 08:19:54;;;;;;;102.40;44.38;;;;;;;0.91;79.11;99020.53;2236540;78;31149;-61
2020/12/12 08:22:56;;;;;;;108.32;45.35;;;;;;;0.97;79.09;99017.31;2227527;79;33073;-61
2020/12/12 08:26:00;;;;;;;97.90;44.75;;;;;;;0.96;78.91;99021.73;2189030;80;29256;-61
2020/12/12 08:29:04;;;;;;;102.32;45.80;;;;;;;1.00;78.95;99026.45;2211478;78;27628;-63
2020/12/12 08:32:06;;;;;;;96.17;44.13;;;;;;;1.00;78.92;99019.39;2223502;79;28799;-63
2020/12/12 08:35:25;;;;;;;95.90;43.55;;;;;;;1.02;78.82;99024.63;2191877;80;31140;-62
2020/12/12 08:38:28;;;;;;;102.60;48.68;;;;;;;1.03;78.88;99029.84;2225316;78;34113;-63
2020/12/12 08:41:34;;;;;;;91.72;41.33;;;;;;;1.12;79.08;99027.84;2227747;79;29775;-63
2020/12/12 08:44:36;;;;;;;98.30;43.33;;;;;;;1.20;78.90;99026.69;2205689;79;27637;-62
2020/12/12 08:47:39;;;;;;;91.25;42.73;;;;;;;1.29;78.77;99033.45;2189353;78;29810;-63
2020/12/12 08:50:51;;;;;;;104.47;45.48;;;;;;;1.32;78.62;99032.03;2188891;81;32104;-61
2020/12/12 08:53:54;;;;;;;102.55;46.33;;;;;;;1.38;78.74;99030.09;2224276;78;33096;-59
2020/12/12 08:57:11;;;;;;;95.95;42.60;;;;;;;1.41;78.51;99034.80;2213773;79;28859;-61
2020/12/12 09:00:13;;;;;;;98.95;44.38;;;;;;;1.41;78.36;99037.44;2186670;81;27645;-63
2020/12/12 09:03:18;;;;;;;69.00;33.05;;;;;;;1.42;78.38;99031.73;2188364;81;28825;-63
2020/12/12 09:06:21;;;;;;;91.85;43.13;;;;;;;1.44;78.48;99028.58;2188719;81;31115;-63
2020/12/12 09:09:31;;;;;;;95.22;44.27;;;;;;;1.48;78.58;99036.81;2195047;78;34365;-61
2020/12/12 09:12:44;;;;;;;91.15;45.10;;;;;;;1.50;78.42;99028.36;2188630;81;28237;-61
2020/12/12 09:15:46;;;;;;;87.55;40.33;;;;;;;1.53;78.35;99032.22;2186979;80;27665;-64
2020/12/12 09:18:48;;;;;;;91.80;45.50;;;;;;;1.56;78.31;99037.88;2211233;79;31130;-64
2020/12/12 09:21:53;;;;;;;93.45;46.18;;;;;;;1.56;78.34;99042.69;2209820;79;31147;-61
2020/12/12 09:24:55;;;;;;;97.97;48.28;;;;;;;1.57;78.28;99035.65;2210743;80;33093;-64
2020/12/12 09:27:58;;;;;;;92.62;45.83;;;;;;;1.61;78.38;99034.61;2221275;79;28849;-61
2020/12/12 09:31:01;;;;;;;107.25;57.08;;;;;;;1.65;78.26;99033.59;2250298;79;27661;-61
2020/12/12 09:34:04;;;;;;;91.08;46.28;;;;;;;1.66;78.14;99035.33;2191359;81;29689;-63
2020/12/12 09:37:28;;;;;;;94.35;47.10;;;;;;;1.69;78.13;99036.98;2191121;80;32050;-64
2020/12/12 09:40:30;;;;;;;89.32;41.83;;;;;;;1.76;78.22;99033.23;2148073;82;34683;-62
2020/12/12 09:43:33;;;;;;;86.90;42.10;;;;;;;1.81;78.07;99034.80;2143010;83;28853;-60
2020/12/12 09:46:36;;;;;;;110.52;54.25;;;;;;;1.88;78.10;99030.17;2120170;83;27676;-61
2020/12/12 09:49:39;;;;;;;80.35;40.45;;;;;;;2.00;78.25;99030.20;2172443;81;29802;-62
2020/12/12 09:52:41;;;;;;;81.40;41.70;;;;;;;2.15;78.02;99024.85;2180641;81;31257;-61
2020/12/12 09:55:45;;;;;;;83.12;42.38;;;;;;;2.21;77.70;99031.69;2145653;82;33123;-67
2020/12/12 09:58:48;;;;;;;74.77;37.67;;;;;;;2.21;77.63;99027.25;2133325;82;28648;-61
2020/12/12 10:01:51;;;;;;;75.85;40.38;;;;;;;2.28;77.68;99031.86;2143147;82;27629;-64
2020/12/12 10:04:54;;;;;;;78.87;39.73;;;;;;;2.30;77.31;99030.50;2117673;82;28837;-77
2020/12/12 10:07:58;;;;;;;84.17;42.50;;;;;;;2.30;77.16;99037.95;2136069;83;31146;-63
2020/12/12 10:11:01;;;;;;;78.52;39.80;;;;;;;2.28;77.34;99030.09;2113577;84;34048;-72
2020/12/12 10:17:18;;;;;;;80.20;39.77;;;;;;;2.39;77.27;99029.70;2372761;74;27635;-59
2020/12/12 10:20:22;;;;;;;86.92;40.00;;;;;;;2.37;77.34;99028.02;2313136;77;27678;-60
2020/12/12 10:23:25;;;;;;;88.60;43.95;;;;;;;2.34;76.99;99034.28;2312368;76;28870;-63
2020/12/12 10:26:27;;;;;;;84.52;42.00;;;;;;;2.31;76.91;99033.55;2288418;77;31118;-61
2020/12/12 10:29:30;;;;;;;90.57;44.33;;;;;;;2.27;76.72;99033.65;2312599;76;34059;-60
2020/12/12 10:32:34;;;;;;;87.27;46.02;;;;;;;2.25;77.05;99038.13;2312449;76;29872;-62
2020/12/12 10:35:37;;;;;;;91.40;41.25;;;;;;;2.31;77.28;99037.03;2311906;77;27659;-61
2020/12/12 10:38:39;;;;;;;84.30;44.98;;;;;;;2.38;77.32;99038.55;2312935;77;29757;-62
2020/12/12 10:41:41;;;;;;;76.67;40.20;;;;;;;2.49;77.33;99041.24;2312223;77;31122;-62
2020/12/12 10:44:44;;;;;;;87.92;42.27;;;;;;;2.51;77.02;99041.58;2311964;77;33152;-63
2020/12/12 10:47:46;;;;;;;81.72;41.50;;;;;;;2.46;76.96;99039.59;2312958;77;29273;-62
2020/12/12 10:50:50;;;;;;;80.72;43.60;;;;;;;2.51;77.06;99042.05;2326576;76;27737;-62
2020/12/12 10:53:54;;;;;;;72.87;38.78;;;;;;;2.53;77.08;99039.75;2334490;75;28835;-62
2020/12/12 10:56:57;;;;;;;100.55;46.53;;;;;;;2.53;76.60;99038.42;2284138;76;31124;-61
2020/12/12 11:00:02;;;;;;;90.70;46.92;;;;;;;2.48;76.94;99032.47;2303027;77;34442;-62
2020/12/12 11:03:03;;;;;;;87.10;42.35;;;;;;;2.52;76.92;99041.98;2309802;77;29861;-64
2020/12/12 11:06:06;;;;;;;87.35;43.28;;;;;;;2.53;76.69;99033.61;2312551;77;27764;-61
2020/12/12 11:09:08;;;;;;;79.82;43.80;;;;;;;2.52;76.73;99027.92;2270510;78;28971;-61
2020/12/12 11:12:13;;;;;;;70.65;36.58;;;;;;;2.48;76.56;99036.88;2312354;77;31694;-63
2020/12/12 11:15:16;;;;;;;79.92;41.80;;;;;;;2.47;76.51;99035.15;2271272;77;33953;-65
2020/12/12 11:18:18;;;;;;;71.33;37.73;;;;;;;2.42;76.69;99030.04;2316593;76;29376;-61
2020/12/12 11:21:22;;;;;;;81.67;39.38;;;;;;;2.42;76.59;99040.61;2304545;77;27642;-67
2020/12/12 11:24:25;;;;;;;68.65;35.25;;;;;;;2.35;76.58;99029.84;2299118;77;28796;-65
2020/12/12 11:27:27;;;;;;;74.27;36.93;;;;;;;2.34;76.51;99029.44;2280105;76;31320;-62
2020/12/12 11:30:30;;;;;;;70.52;37.03;;;;;;;2.35;76.67;99028.52;2264510;77;33966;-61
2020/12/12 11:33:35;;;;;;;72.40;37.73;;;;;;;2.42;76.75;99029.56;2275199;78;28328;-63
2020/12/12 11:36:49;;;;;;;58.95;36.08;;;;;;;2.45;76.65;99027.29;2278763;78;27695;-69
2020/12/12 11:43:16;;;;;;;62.50;32.98;;;;;;;2.49;76.56;99026.70;2308715;77;32129;-62
2020/12/12 11:49:26;;;;;;;84.92;42.38;;;;;;;2.44;76.47;99022.92;2308831;76;28850;-61
2020/12/12 11:52:29;;;;;;;63.60;35.28;;;;;;;2.48;76.68;99027.18;2309118;76;27676;-61
2020/12/12 11:55:31;;;;;;;68.42;36.93;;;;;;;2.55;76.58;99022.05;2308968;76;30060;-62
2020/12/12 11:58:37;;;;;;;75.70;39.85;;;;;;;2.57;76.50;99025.50;2259900;76;31502;-63
2020/12/12 12:01:41;;;;;;;74.60;41.55;;;;;;;2.65;76.62;99024.36;2280071;78;33124;-61
2020/12/12 12:04:46;;;;;;;69.58;38.15;;;;;;;2.70;76.51;99031.64;2260558;76;28272;-61
2020/12/12 12:07:50;;;;;;;65.42;36.58;;;;;;;2.76;76.52;99034.51;2314769;76;27246;-61
2020/12/12 12:14:10;;;;;;;94.07;47.53;;;;;;;2.91;76.42;99031.27;2286769;77;27678;-60
2020/12/12 12:17:12;;;;;;;78.45;39.70;;;;;;;2.94;76.35;99039.57;2255087;78;27659;-61
2020/12/12 12:20:15;;;;;;;74.75;40.70;;;;;;;3.03;76.37;99043.17;2247264;79;28828;-61
2020/12/12 12:23:18;;;;;;;72.53;37.13;;;;;;;3.12;76.10;99036.66;2215263;78;31210;-61
2020/12/12 12:26:21;;;;;;;62.10;36.13;;;;;;;3.25;75.99;99043.17;2224322;78;33099;-60
2020/12/12 12:29:24;;;;;;;66.47;39.67;;;;;;;3.40;75.97;99046.13;2257018;78;28340;-61
2020/12/12 12:32:27;;;;;;;67.78;36.95;;;;;;;3.54;75.74;99039.83;2257937;78;27640;-61
2020/12/12 12:35:29;;;;;;;73.97;40.73;;;;;;;3.65;75.14;99044.21;2237980;78;30203;-61
2020/12/12 12:38:32;;;;;;;76.40;42.60;;;;;;;3.72;75.50;99041.31;2245971;78;31133;-61
2020/12/12 12:41:37;;;;;;;78.20;42.70;;;;;;;3.80;75.55;99035.22;2246055;78;32958;-62
2020/12/12 12:44:39;;;;;;;84.77;44.93;;;;;;;3.83;75.17;99039.06;2254039;78;28935;-64
2020/12/12 12:47:42;;;;;;;81.37;44.53;;;;;;;3.86;75.16;99037.62;2226273;78;27693;-62
2020/12/12 12:50:44;;;;;;;123.87;58.23;;;;;;;3.88;75.12;99042.39;2219606;78;28827;-62
2020/12/12 12:53:47;;;;;;;82.40;42.20;;;;;;;3.90;74.92;99040.98;2220140;78;32110;-62
2020/12/12 12:56:50;;;;;;;80.55;44.05;;;;;;;3.88;74.49;99035.77;2244743;78;33542;-62
2020/12/12 12:59:52;;;;;;;80.65;42.05;;;;;;;3.83;74.16;99039.52;2253932;78;29733;-62
2020/12/12 13:02:55;;;;;;;88.60;49.20;;;;;;;3.72;74.29;99040.84;2248044;79;27660;-61
2020/12/12 13:05:57;;;;;;;81.87;43.63;;;;;;;3.78;74.97;99035.74;2219441;80;28908;-61
2020/12/12 13:09:00;;;;;;;93.45;50.40;;;;;;;3.86;74.53;99042.92;2246598;78;31152;-65
2020/12/12 13:12:04;;;;;;;74.47;42.17;;;;;;;3.83;74.57;99044.81;2259413;78;33129;-61
2020/12/12 13:15:08;;;;;;;83.72;44.85;;;;;;;3.80;74.49;99048.47;2191820;80;28956;-61
2020/12/12 13:18:20;;;;;;;88.62;50.20;;;;;;;3.77;74.65;99049.91;2173686;81;27749;-61
2020/12/12 13:24:35;;;;;;;93.97;52.13;;;;;;;3.84;74.58;99042.56;2251204;77;27775;-63
2020/12/12 13:27:37;;;;;;;88.15;49.98;;;;;;;3.77;74.71;99046.81;2217116;80;27680;-63
2020/12/12 13:34:04;;;;;;;87.88;45.73;;;;;;;3.77;74.54;99057.41;2181634;80;31713;-61
2020/12/12 13:37:07;;;;;;;74.77;38.88;;;;;;;3.70;74.24;99063.03;2173586;80;32406;-62
2020/12/12 13:40:10;;;;;;;74.42;40.33;;;;;;;3.61;74.18;99058.50;2204836;80;29457;-67
2020/12/12 13:43:13;;;;;;;77.85;43.80;;;;;;;3.60;74.29;99051.47;2217589;80;27962;-66
2020/12/12 13:46:16;;;;;;;84.55;46.18;;;;;;;3.63;74.44;99052.67;2180575;80;30238;-61
2020/12/12 13:49:18;;;;;;;97.27;52.80;;;;;;;3.65;74.45;99052.60;2187697;80;31149;-63
2020/12/12 13:52:22;;;;;;;98.35;54.23;;;;;;;3.62;74.36;99053.60;2178763;81;34433;-64
2020/12/12 13:55:25;;;;;;;93.97;50.78;;;;;;;3.65;74.28;99057.45;2178944;81;29811;-63
2020/12/12 13:58:27;;;;;;;87.97;47.58;;;;;;;3.60;74.32;99055.45;2171640;80;28046;-64
2020/12/12 14:01:29;;;;;;;102.67;57.05;;;;;;;3.58;74.25;99059.09;2178494;80;29750;-62
2020/12/12 14:04:32;;;;;;;111.37;60.05;;;;;;;3.55;74.52;99061.86;2177665;81;31135;-64
2020/12/12 14:07:38;;;;;;;86.57;48.25;;;;;;;3.58;74.53;99063.91;2187110;80;33618;-71
2020/12/12 14:23:44;;;;;;;122.60;60.23;;;;;;;3.41;74.46;99084.91;2228510;79;27841;-62
2020/12/12 14:30:07;;;;;;;76.67;43.65;;;;;;;3.39;74.47;99087.63;2219128;79;31144;-61
2020/12/12 14:33:11;;;;;;;82.08;41.65;;;;;;;3.36;74.38;99090.40;2190076;79;33113;-62
2020/12/12 14:36:14;;;;;;;86.37;46.75;;;;;;;3.32;74.43;99094.95;2228543;79;28426;-67
2020/12/12 14:39:16;;;;;;;70.37;36.13;;;;;;;3.30;74.68;99095.95;2203010;79;27796;-63
2020/12/12 14:42:20;;;;;;;88.42;44.60;;;;;;;3.29;74.61;99096.88;2190056;80;28831;-62
2020/12/12 14:45:22;;;;;;;78.12;41.42;;;;;;;3.25;74.59;99099.23;2218330;79;31229;-62
2020/12/12 14:48:24;;;;;;;76.33;41.10;;;;;;;3.24;74.58;99099.67;2227471;79;33977;-63
2020/12/12 14:51:27;;;;;;;75.62;44.00;;;;;;;3.23;74.53;99099.75;2223296;79;28817;-62
2020/12/12 14:54:34;;;;;;;70.90;39.33;;;;;;;3.23;74.55;99103.24;2214560;79;27731;-61
2020/12/12 14:57:37;;;;;;;76.47;40.40;;;;;;;3.21;74.43;99101.59;2229143;79;28712;-63